Time,TemperatureF,DewpointF,PressureIn,WindDirection,WindDirectionDegrees,WindSpeedMPH,WindSpeedGustMPH,Humidity,HourlyPrecipIn,Conditions,Clouds,dailyrainin,SoftwareType,DateUTC
2013-08-01 00:00:00,59.6,49.8,29.86,East,96,2.0,2.0,70,0.00,,,0.00,Wunderground v.1.15,2013-08-01 06:00:00,
2013-08-01 00:10:00,59.7,49.9,29.86,ENE,68,3.0,3.0,70,0.00,,,0.00,Wunderground v.1.15,2013-08-01 06:10:00,
2013-08-01 00:15:00,59.9,49.7,29.86,East,82,4.0,6.0,69,0.00,,,0.00,Wunderground v.1.15,2013-08-01 06:15:00,
2013-08-01 00:20:00,59.9,49.7,29.87,ENE,73,5.0,7.0,69,0.00,,,0.00,Wunderground v.1.15,2013-08-01 06:20:00,
2013-08-01 00:25:00,60.0,49.4,29.87,ENE,67,5.0,7.0,68,0.00,,,0.00,Wunderground v.1.15,2013-08-01 06:25:00,
2013-08-01 00:30:00,59.9,49.3,29.87,East,97,5.0,5.0,68,0.00,,,0.00,Wunderground v.1.15,2013-08-01 06:30:00,
2013-08-01 00:35:00,59.6,49.4,29.87,East,86,4.0,5.0,69,0.00,,,0.00,Wunderground v.1.15,2013-08-01 06:35:00,
2013-08-01 00:45:00,59.1,48.9,29.88,ENE,76,3.0,4.0,69,0.00,,,0.00,Wunderground v.1.15,2013-08-01 06:45:00,
2013-08-01 00:59:00,58.8,48.6,29.87,ENE,76,3.0,3.0,69,0.00,,,0.00,Wunderground v.1.15,2013-08-01 06:59:00,
2013-08-01 01:09:00,58.6,48.5,29.88,East,79,5.0,5.0,69,0.00,,,0.00,Wunderground v.1.15,2013-08-01 07:09:00,
2013-08-01 01:14:00,58.2,48.1,29.87,ENE,78,4.0,5.0,69,0.00,,,0.00,Wunderground v.1.15,2013-08-01 07:14:00,
2013-08-01 01:19:00,57.9,48.6,29.87,NE,53,3.0,3.0,71,0.00,,,0.00,Wunderground v.1.15,2013-08-01 07:19:00,
2013-08-01 01:24:00,57.7,48.4,29.87,ESE,111,3.0,9.0,71,0.00,,,0.00,Wunderground v.1.15,2013-08-01 07:24:00,
2013-08-01 01:29:00,57.7,48.4,29.87,ENE,72,5.0,5.0,71,0.00,,,0.00,Wunderground v.1.15,2013-08-01 07:29:00,
2013-08-01 01:34:00,57.5,48.2,29.87,ENE,77,5.0,12.0,71,0.00,,,0.00,Wunderground v.1.15,2013-08-01 07:34:00,
2013-08-01 01:44:00,57.2,47.9,29.88,ENE,74,4.0,12.0,71,0.00,,,0.00,Wunderground v.1.15,2013-08-01 07:44:00,
2013-08-01 01:49:00,57.2,47.9,29.87,East,84,6.0,6.0,71,0.00,,,0.00,Wunderground v.1.15,2013-08-01 07:49:00,
2013-08-01 01:59:00,56.6,47.7,29.87,ENE,64,3.0,4.0,72,0.00,,,0.00,Wunderground v.1.15,2013-08-01 07:59:00,
2013-08-01 02:09:00,56.5,47.6,29.87,East,92,4.0,6.0,72,0.00,,,0.00,Wunderground v.1.15,2013-08-01 08:09:00,
2013-08-01 02:19:00,56.8,47.9,29.88,ENE,64,2.0,3.0,72,0.00,,,0.00,Wunderground v.1.15,2013-08-01 08:19:00,
2013-08-01 02:24:00,56.8,47.9,29.87,East,91,1.0,3.0,72,0.00,,,0.00,Wunderground v.1.15,2013-08-01 08:24:00,
2013-08-01 02:34:00,56.9,47.6,29.87,ESE,107,3.0,11.0,71,0.00,,,0.00,Wunderground v.1.15,2013-08-01 08:34:00,
2013-08-01 02:39:00,56.9,47.6,29.87,East,79,2.0,11.0,71,0.00,,,0.00,Wunderground v.1.15,2013-08-01 08:39:00,
2013-08-01 02:54:00,57.1,47.8,29.87,ENE,57,2.0,11.0,71,0.00,,,0.00,Wunderground v.1.15,2013-08-01 08:54:00,
2013-08-01 03:09:00,56.9,47.6,29.88,ENE,63,3.0,3.0,71,0.00,,,0.00,Wunderground v.1.15,2013-08-01 09:09:00,
2013-08-01 03:14:00,56.8,47.9,29.88,ENE,78,3.0,3.0,72,0.00,,,0.00,Wunderground v.1.15,2013-08-01 09:14:00,
2013-08-01 03:24:00,56.9,48.0,29.88,ENE,71,2.0,2.0,72,0.00,,,0.00,Wunderground v.1.15,2013-08-01 09:24:00,
2013-08-01 03:29:00,56.9,48.0,29.88,ENE,75,3.0,4.0,72,0.00,,,0.00,Wunderground v.1.15,2013-08-01 09:29:00,
2013-08-01 03:44:00,56.5,47.9,29.87,East,88,3.0,8.0,73,0.00,,,0.00,Wunderground v.1.15,2013-08-01 09:44:00,
2013-08-01 04:09:00,55.5,48.1,29.87,East,79,2.0,2.0,76,0.00,,,0.00,Wunderground v.1.15,2013-08-01 10:09:00,
2013-08-01 04:24:00,54.2,47.5,29.87,East,79,0.0,1.0,78,0.00,,,0.00,Wunderground v.1.15,2013-08-01 10:24:00,
2013-08-01 04:54:00,53.4,47.7,29.86,East,79,1.0,7.0,81,0.00,,,0.00,Wunderground v.1.15,2013-08-01 10:54:00,
2013-08-01 04:59:00,53.6,47.9,29.86,ENE,66,2.0,5.0,81,0.00,,,0.00,Wunderground v.1.15,2013-08-01 10:59:00,
2013-08-01 05:14:00,54.2,47.8,29.86,East,98,3.0,4.0,79,0.00,,,0.00,Wunderground v.1.15,2013-08-01 11:14:00,
2013-08-01 05:24:00,53.9,47.9,29.87,ENE,65,3.0,3.0,80,0.00,,,0.00,Wunderground v.1.15,2013-08-01 11:24:00,
2013-08-01 05:34:00,53.9,47.9,29.88,East,84,3.0,6.0,80,0.00,,,0.00,Wunderground v.1.15,2013-08-01 11:34:00,
2013-08-01 05:44:00,53.7,47.7,29.88,East,99,4.0,8.0,80,0.00,,,0.00,Wunderground v.1.15,2013-08-01 11:44:00,
2013-08-01 05:49:00,53.9,47.9,29.88,ENE,74,5.0,5.0,80,0.00,,,0.00,Wunderground v.1.15,2013-08-01 11:49:00,
2013-08-01 05:59:00,53.7,47.7,29.88,ESE,105,5.0,5.0,80,0.00,,,0.00,Wunderground v.1.15,2013-08-01 11:59:00,
2013-08-01 06:09:00,52.9,47.2,29.88,ENE,75,3.0,4.0,81,0.00,,,0.00,Wunderground v.1.15,2013-08-01 12:09:00,
2013-08-01 06:19:00,52.7,47.0,29.88,ENE,74,3.0,3.0,81,0.00,,,0.00,Wunderground v.1.15,2013-08-01 12:19:00,
2013-08-01 06:24:00,52.3,47.0,29.89,East,90,2.0,3.0,82,0.00,,,0.00,Wunderground v.1.15,2013-08-01 12:24:00,
2013-08-01 06:29:00,52.3,47.0,29.89,ENE,67,3.0,8.0,82,0.00,,,0.00,Wunderground v.1.15,2013-08-01 12:29:00,
2013-08-01 06:39:00,52.3,47.0,29.89,ESE,103,5.0,5.0,82,0.00,,,0.00,Wunderground v.1.15,2013-08-01 12:39:00,
2013-08-01 06:44:00,52.3,47.0,29.89,ENE,78,4.0,8.0,82,0.00,,,0.00,Wunderground v.1.15,2013-08-01 12:44:00,
2013-08-01 06:49:00,52.3,47.0,29.89,ENE,76,5.0,8.0,82,0.00,,,0.00,Wunderground v.1.15,2013-08-01 12:49:00,
2013-08-01 06:54:00,52.3,47.0,29.89,East,88,3.0,8.0,82,0.00,,,0.00,Wunderground v.1.15,2013-08-01 12:54:00,
2013-08-01 07:09:00,52.4,47.1,29.89,East,80,2.0,6.0,82,0.00,,,0.00,Wunderground v.1.15,2013-08-01 13:09:00,
2013-08-01 07:19:00,52.4,47.1,29.89,East,88,3.0,3.0,82,0.00,,,0.00,Wunderground v.1.15,2013-08-01 13:19:00,
2013-08-01 07:24:00,52.6,46.9,29.89,East,88,2.0,3.0,81,0.00,,,0.00,Wunderground v.1.15,2013-08-01 13:24:00,
2013-08-01 07:29:00,52.6,47.3,29.89,East,88,0.0,5.0,82,0.00,,,0.00,Wunderground v.1.15,2013-08-01 13:29:00,
2013-08-01 07:49:00,54.3,48.3,29.89,East,86,0.0,9.0,80,0.00,,,0.00,Wunderground v.1.15,2013-08-01 13:49:00,
2013-08-01 08:04:00,55.8,49.0,29.88,East,86,0.0,0.0,78,0.00,,,0.00,Wunderground v.1.15,2013-08-01 14:04:00,
2013-08-01 08:09:00,56.3,49.2,29.88,East,93,0.0,2.0,77,0.00,,,0.00,Wunderground v.1.15,2013-08-01 14:09:00,
2013-08-01 08:19:00,57.8,50.3,29.87,East,94,0.0,0.0,76,0.00,,,0.00,Wunderground v.1.15,2013-08-01 14:19:00,
2013-08-01 08:24:00,58.6,50.3,29.87,East,94,0.0,0.0,74,0.00,,,0.00,Wunderground v.1.15,2013-08-01 14:24:00,
2013-08-01 08:34:00,59.6,51.3,29.87,East,94,0.0,6.0,74,0.00,,,0.00,Wunderground v.1.15,2013-08-01 14:34:00,
2013-08-01 08:44:00,61.7,52.2,29.87,East,94,0.0,6.0,71,0.00,,,0.00,Wunderground v.1.15,2013-08-01 14:44:00,
2013-08-01 08:54:00,63.7,51.3,29.86,East,94,0.0,6.0,64,0.00,,,0.00,Wunderground v.1.15,2013-08-01 14:54:00,
2013-08-01 09:04:00,65.3,51.5,29.86,East,94,0.0,0.0,61,0.00,,,0.00,Wunderground v.1.15,2013-08-01 15:04:00,
2013-08-01 09:14:00,65.6,50.0,29.85,NNW,340,1.0,1.0,57,0.00,,,0.00,Wunderground v.1.15,2013-08-01 15:14:00,
2013-08-01 09:24:00,65.7,49.6,29.86,NW,321,2.0,2.0,56,0.00,,,0.00,Wunderground v.1.15,2013-08-01 15:24:00,
2013-08-01 09:29:00,65.9,49.8,29.86,NW,323,1.0,2.0,56,0.00,,,0.00,Wunderground v.1.15,2013-08-01 15:29:00,
2013-08-01 09:39:00,66.5,49.3,29.85,NNW,336,3.0,3.0,54,0.00,,,0.00,Wunderground v.1.15,2013-08-01 15:39:00,
2013-08-01 09:54:00,67.0,48.8,29.85,NNW,329,2.0,3.0,52,0.00,,,0.00,Wunderground v.1.15,2013-08-01 15:54:00,
2013-08-01 10:04:00,68.8,49.4,29.84,NW,324,2.0,2.0,50,0.00,,,0.00,Wunderground v.1.15,2013-08-01 16:04:00,
2013-08-01 10:14:00,68.7,48.8,29.85,NW,321,3.0,5.0,49,0.00,,,0.00,Wunderground v.1.15,2013-08-01 16:14:00,
2013-08-01 10:24:00,68.3,49.5,29.84,NW,313,2.0,4.0,51,0.00,,,0.00,Wunderground v.1.15,2013-08-01 16:24:00,
2013-08-01 10:34:00,68.6,48.7,29.85,NNE,27,3.0,8.0,49,0.00,,,0.00,Wunderground v.1.15,2013-08-01 16:34:00,
2013-08-01 10:54:00,68.2,48.8,29.85,NNW,342,4.0,5.0,50,0.00,,,0.00,Wunderground v.1.15,2013-08-01 16:54:00,
2013-08-01 11:14:00,67.2,50.0,29.85,NNW,331,3.0,3.0,54,0.00,,,0.00,Wunderground v.1.15,2013-08-01 17:14:00,
2013-08-01 11:19:00,67.1,49.9,29.85,NNW,332,3.0,5.0,54,0.00,,,0.00,Wunderground v.1.15,2013-08-01 17:19:00,
2013-08-01 11:24:00,67.2,50.5,29.85,NW,309,4.0,5.0,55,0.00,,,0.00,Wunderground v.1.15,2013-08-01 17:24:00,
2013-08-01 11:29:00,67.4,50.7,29.85,WNW,294,5.0,5.0,55,0.00,,,0.00,Wunderground v.1.15,2013-08-01 17:29:00,
2013-08-01 11:49:00,67.5,51.7,29.85,NNW,338,5.0,5.0,57,0.00,,,0.00,Wunderground v.1.15,2013-08-01 17:49:00,
2013-08-01 11:59:00,67.3,52.0,29.85,North,349,4.0,4.0,58,0.00,,,0.00,Wunderground v.1.15,2013-08-01 17:59:00,
2013-08-01 12:09:00,66.9,51.6,29.85,NNW,342,4.0,4.0,58,0.00,,,0.00,Wunderground v.1.15,2013-08-01 18:09:00,
2013-08-01 12:24:00,67.9,50.1,29.84,North,11,5.0,10.0,53,0.00,,,0.00,Wunderground v.1.15,2013-08-01 18:24:00,
2013-08-01 12:34:00,68.4,49.6,29.84,North,5,7.0,9.0,51,0.00,,,0.00,Wunderground v.1.15,2013-08-01 18:34:00,
2013-08-01 12:49:00,68.2,49.9,29.84,NNW,338,5.0,5.0,52,0.00,,,0.00,Wunderground v.1.15,2013-08-01 18:49:00,
2013-08-01 12:54:00,68.3,50.0,29.83,NNW,331,4.0,10.0,52,0.00,,,0.00,Wunderground v.1.15,2013-08-01 18:54:00,
2013-08-01 12:59:00,68.1,49.8,29.83,NNW,342,4.0,4.0,52,0.00,,,0.00,Wunderground v.1.15,2013-08-01 18:59:00,
2013-08-01 13:19:00,69.7,51.3,29.82,NNW,342,5.0,5.0,52,0.00,,,0.00,Wunderground v.1.15,2013-08-01 19:19:00,
2013-08-01 13:29:00,70.0,51.0,29.81,North,5,5.0,6.0,51,0.00,,,0.00,Wunderground v.1.15,2013-08-01 19:29:00,
2013-08-01 13:39:00,70.1,52.2,29.82,NNW,334,5.0,13.0,53,0.00,,,0.00,Wunderground v.1.15,2013-08-01 19:39:00,
2013-08-01 13:49:00,69.8,50.9,29.81,WNW,288,5.0,13.0,51,0.00,,,0.00,Wunderground v.1.15,2013-08-01 19:49:00,
2013-08-01 13:54:00,69.5,51.6,29.81,NNW,327,5.0,13.0,53,0.00,,,0.00,Wunderground v.1.15,2013-08-01 19:54:00,
2013-08-01 13:59:00,69.2,51.3,29.81,NNW,333,5.0,6.0,53,0.00,,,0.00,Wunderground v.1.15,2013-08-01 19:59:00,
2013-08-01 14:09:00,68.7,51.9,29.83,NNW,335,5.0,5.0,55,0.00,,,0.00,Wunderground v.1.15,2013-08-01 20:09:00,
2013-08-01 14:14:00,68.1,50.8,29.84,NW,323,6.0,6.0,54,0.00,,,0.00,Wunderground v.1.15,2013-08-01 20:14:00,
2013-08-01 14:19:00,65.9,52.9,29.83,NW,324,6.0,6.0,63,0.00,,,0.00,Wunderground v.1.15,2013-08-01 20:19:00,
2013-08-01 14:29:00,62.4,53.6,29.83,NNW,337,2.0,2.0,73,0.00,,,0.00,Wunderground v.1.15,2013-08-01 20:29:00,
2013-08-01 14:34:00,62.7,55.0,29.84,WSW,257,1.0,13.0,76,0.00,,,0.00,Wunderground v.1.15,2013-08-01 20:34:00,
2013-08-01 14:39:00,62.4,54.0,29.83,WNW,303,1.0,1.0,74,0.00,,,0.01,Wunderground v.1.15,2013-08-01 20:39:00,
2013-08-01 14:44:00,62.7,54.3,29.83,WNW,303,1.0,13.0,74,0.00,,,0.01,Wunderground v.1.15,2013-08-01 20:44:00,
2013-08-01 14:49:00,63.2,54.4,29.83,NNW,340,0.0,13.0,73,0.00,,,0.01,Wunderground v.1.15,2013-08-01 20:49:00,
2013-08-01 14:59:00,65.9,54.2,29.82,NW,317,2.0,2.0,66,0.00,,,0.01,Wunderground v.1.15,2013-08-01 20:59:00,
2013-08-01 15:09:00,67.8,53.9,29.81,WNW,284,2.0,2.0,61,0.00,,,0.01,Wunderground v.1.15,2013-08-01 21:09:00,
2013-08-01 15:29:00,70.1,52.2,29.79,NNE,26,4.0,4.0,53,0.00,,,0.01,Wunderground v.1.15,2013-08-01 21:29:00,
2013-08-01 15:34:00,69.8,52.4,29.78,NW,325,3.0,17.0,54,0.00,,,0.01,Wunderground v.1.15,2013-08-01 21:34:00,
2013-08-01 15:44:00,71.4,50.7,29.78,NNW,342,2.0,8.0,48,0.00,,,0.01,Wunderground v.1.15,2013-08-01 21:44:00,
2013-08-01 15:49:00,71.5,50.8,29.78,NW,315,4.0,4.0,48,0.00,,,0.01,Wunderground v.1.15,2013-08-01 21:49:00,
2013-08-01 15:54:00,71.9,50.6,29.78,NNW,343,5.0,5.0,47,0.00,,,0.01,Wunderground v.1.15,2013-08-01 21:54:00,
2013-08-01 15:59:00,73.3,50.7,29.77,North,355,5.0,8.0,45,0.00,,,0.01,Wunderground v.1.15,2013-08-01 21:59:00,
2013-08-01 16:09:00,72.6,49.4,29.77,WNW,295,5.0,5.0,44,0.00,,,0.01,Wunderground v.1.15,2013-08-01 22:09:00,
2013-08-01 16:19:00,72.9,50.3,29.76,NNW,333,4.0,4.0,45,0.00,,,0.01,Wunderground v.1.15,2013-08-01 22:19:00,
2013-08-01 16:24:00,73.3,50.7,29.76,NW,315,5.0,5.0,45,0.00,,,0.01,Wunderground v.1.15,2013-08-01 22:24:00,
2013-08-01 16:34:00,73.0,51.0,29.75,NNW,343,3.0,6.0,46,0.00,,,0.01,Wunderground v.1.15,2013-08-01 22:34:00,
2013-08-01 16:39:00,72.6,49.4,29.75,NW,305,4.0,4.0,44,0.00,,,0.01,Wunderground v.1.15,2013-08-01 22:39:00,
2013-08-01 16:49:00,72.0,50.7,29.76,NW,311,2.0,9.0,47,0.00,,,0.01,Wunderground v.1.15,2013-08-01 22:49:00,
2013-08-01 16:59:00,71.8,50.5,29.76,NW,313,2.0,5.0,47,0.00,,,0.01,Wunderground v.1.15,2013-08-01 22:59:00,
2013-08-01 17:09:00,71.2,49.9,29.76,NNW,329,4.0,4.0,47,0.00,,,0.01,Wunderground v.1.15,2013-08-01 23:09:00,
2013-08-01 17:19:00,70.8,50.1,29.77,NW,304,2.0,2.0,48,0.00,,,0.01,Wunderground v.1.15,2013-08-01 23:19:00,
2013-08-01 17:24:00,70.9,50.2,29.77,NW,323,2.0,2.0,48,0.00,,,0.01,Wunderground v.1.15,2013-08-01 23:24:00,
2013-08-01 17:29:00,71.0,50.3,29.77,NW,315,1.0,1.0,48,0.00,,,0.01,Wunderground v.1.15,2013-08-01 23:29:00,
2013-08-01 17:34:00,70.7,51.1,29.77,NW,321,1.0,2.0,50,0.00,,,0.01,Wunderground v.1.15,2013-08-01 23:34:00,
2013-08-01 17:39:00,70.6,50.0,29.77,NW,321,1.0,1.0,48,0.00,,,0.01,Wunderground v.1.15,2013-08-01 23:39:00,
2013-08-01 17:44:00,70.4,49.8,29.76,NW,305,1.0,12.0,48,0.00,,,0.01,Wunderground v.1.15,2013-08-01 23:44:00,
2013-08-01 17:49:00,70.4,49.8,29.76,NW,324,1.0,12.0,48,0.00,,,0.01,Wunderground v.1.15,2013-08-01 23:49:00,
2013-08-01 17:59:00,70.5,49.3,29.76,NW,324,1.0,1.0,47,0.00,,,0.01,Wunderground v.1.15,2013-08-01 23:59:00,
2013-08-01 18:09:00,70.2,49.6,29.76,NW,325,1.0,1.0,48,0.00,,,0.01,Wunderground v.1.15,2013-08-02 00:09:00,
2013-08-01 18:14:00,70.2,49.0,29.76,NW,311,1.0,1.0,47,0.00,,,0.01,Wunderground v.1.15,2013-08-02 00:14:00,
2013-08-01 18:19:00,70.4,49.2,29.76,NW,324,2.0,2.0,47,0.00,,,0.01,Wunderground v.1.15,2013-08-02 00:19:00,
2013-08-01 18:29:00,70.1,48.9,29.79,NNE,27,4.0,9.0,47,0.00,,,0.01,Wunderground v.1.15,2013-08-02 00:29:00,
2013-08-01 18:34:00,68.6,49.7,29.79,NW,310,7.0,9.0,51,0.00,,,0.01,Wunderground v.1.15,2013-08-02 00:34:00,
2013-08-01 18:39:00,67.7,49.9,29.80,NW,309,6.0,11.0,53,0.00,,,0.01,Wunderground v.1.15,2013-08-02 00:39:00,
2013-08-01 18:44:00,67.0,50.3,29.80,NNW,334,5.0,11.0,55,0.00,,,0.01,Wunderground v.1.15,2013-08-02 00:44:00,
2013-08-01 18:54:00,66.1,50.9,29.81,NW,320,3.0,9.0,58,0.00,,,0.01,Wunderground v.1.15,2013-08-02 00:54:00,
2013-08-01 18:59:00,65.8,51.5,29.81,NNW,344,2.0,3.0,60,0.00,,,0.01,Wunderground v.1.15,2013-08-02 00:59:00,
2013-08-01 19:14:00,64.2,53.0,29.81,NNW,336,4.0,4.0,67,0.00,,,0.01,Wunderground v.1.15,2013-08-02 01:14:00,
2013-08-01 19:19:00,63.4,53.4,29.81,NNW,338,4.0,4.0,70,0.00,,,0.01,Wunderground v.1.15,2013-08-02 01:19:00,
2013-08-01 19:29:00,62.1,53.7,29.82,NNW,332,3.0,3.0,74,0.00,,,0.01,Wunderground v.1.15,2013-08-02 01:29:00,
2013-08-01 19:39:00,61.0,53.4,29.82,NNW,333,3.0,15.0,76,0.00,,,0.01,Wunderground v.1.15,2013-08-02 01:39:00,
2013-08-01 19:44:00,60.7,53.1,29.82,NNW,332,3.0,15.0,76,0.00,,,0.01,Wunderground v.1.15,2013-08-02 01:44:00,
2013-08-01 19:54:00,60.3,52.3,29.83,NW,321,3.0,15.0,75,0.00,,,0.01,Wunderground v.1.15,2013-08-02 01:54:00,
2013-08-01 20:04:00,60.2,52.2,29.83,NNW,335,2.0,2.0,75,0.00,,,0.01,Wunderground v.1.15,2013-08-02 02:04:00,
2013-08-01 20:14:00,60.0,52.1,29.83,NNW,335,1.0,1.0,75,0.00,,,0.01,Wunderground v.1.15,2013-08-02 02:14:00,
2013-08-01 20:19:00,59.8,52.2,29.83,NNW,335,0.0,0.0,76,0.00,,,0.01,Wunderground v.1.15,2013-08-02 02:19:00,
2013-08-01 20:29:00,59.4,51.8,29.83,NNW,335,0.0,0.0,76,0.00,,,0.01,Wunderground v.1.15,2013-08-02 02:29:00,
2013-08-01 20:34:00,59.3,52.1,29.83,NNW,335,0.0,13.0,77,0.00,,,0.01,Wunderground v.1.15,2013-08-02 02:34:00,
2013-08-01 20:44:00,59.5,51.9,29.83,WNW,299,0.0,13.0,76,0.00,,,0.01,Wunderground v.1.15,2013-08-02 02:44:00,
2013-08-01 20:49:00,59.6,52.0,29.82,WNW,298,0.0,13.0,76,0.00,,,0.01,Wunderground v.1.15,2013-08-02 02:49:00,
2013-08-01 20:59:00,59.5,51.9,29.82,WNW,298,0.0,0.0,76,0.00,,,0.01,Wunderground v.1.15,2013-08-02 02:59:00,
2013-08-01 21:09:00,59.3,52.1,29.82,WNW,298,0.0,0.0,77,0.00,,,0.01,Wunderground v.1.15,2013-08-02 03:09:00,
2013-08-01 21:24:00,58.5,52.0,29.82,WNW,298,0.0,0.0,79,0.00,,,0.01,Wunderground v.1.15,2013-08-02 03:24:00,
2013-08-01 21:34:00,58.2,51.7,29.83,WNW,298,0.0,4.0,79,0.00,,,0.01,Wunderground v.1.15,2013-08-02 03:34:00,
2013-08-01 21:39:00,58.1,51.6,29.83,WNW,298,0.0,4.0,79,0.00,,,0.01,Wunderground v.1.15,2013-08-02 03:39:00,
2013-08-01 21:44:00,58.0,51.9,29.83,WNW,298,0.0,4.0,80,0.00,,,0.01,Wunderground v.1.15,2013-08-02 03:44:00,
2013-08-01 21:49:00,57.8,51.7,29.82,WNW,298,0.0,4.0,80,0.00,,,0.01,Wunderground v.1.15,2013-08-02 03:49:00,
2013-08-01 22:04:00,56.7,50.9,29.82,WNW,298,0.0,0.0,81,0.00,,,0.01,Wunderground v.1.15,2013-08-02 04:04:00,
2013-08-01 22:09:00,56.3,50.9,29.82,WNW,298,0.0,0.0,82,0.00,,,0.01,Wunderground v.1.15,2013-08-02 04:09:00,
2013-08-01 22:14:00,55.9,50.8,29.82,WNW,298,0.0,0.0,83,0.00,,,0.01,Wunderground v.1.15,2013-08-02 04:14:00,
2013-08-01 22:19:00,55.7,50.6,29.82,WNW,298,0.0,0.0,83,0.00,,,0.01,Wunderground v.1.15,2013-08-02 04:19:00,
2013-08-01 22:29:00,55.4,50.6,29.82,WNW,298,0.0,0.0,84,0.00,,,0.01,Wunderground v.1.15,2013-08-02 04:29:00,
2013-08-01 22:39:00,55.3,50.5,29.83,WNW,298,0.0,0.0,84,0.00,,,0.01,Wunderground v.1.15,2013-08-02 04:39:00,
2013-08-01 22:49:00,55.0,50.6,29.83,WNW,298,0.0,0.0,85,0.00,,,0.01,Wunderground v.1.15,2013-08-02 04:49:00,
2013-08-01 22:54:00,54.8,50.4,29.83,WNW,298,0.0,0.0,85,0.00,,,0.01,Wunderground v.1.15,2013-08-02 04:54:00,
2013-08-01 22:59:00,54.7,50.3,29.83,WNW,298,0.0,0.0,85,0.00,,,0.01,Wunderground v.1.15,2013-08-02 04:59:00,
2013-08-01 23:09:00,54.4,50.3,29.83,WNW,298,0.0,0.0,86,0.00,,,0.01,Wunderground v.1.15,2013-08-02 05:09:00,
2013-08-01 23:19:00,54.2,50.1,29.83,West,281,0.0,0.0,86,0.00,,,0.01,Wunderground v.1.15,2013-08-02 05:19:00,
2013-08-01 23:29:00,54.8,50.4,29.84,West,281,0.0,0.0,85,0.00,,,0.01,Wunderground v.1.15,2013-08-02 05:29:00,
2013-08-01 23:34:00,55.0,50.6,29.84,West,281,0.0,0.0,85,0.00,,,0.01,Wunderground v.1.15,2013-08-02 05:34:00,
2013-08-01 23:39:00,55.9,51.1,29.84,NNW,334,1.0,1.0,84,0.00,,,0.01,Wunderground v.1.15,2013-08-02 05:39:00,
2013-08-01 23:49:00,56.9,51.8,29.84,North,355,1.0,1.0,83,0.00,,,0.01,Wunderground v.1.15,2013-08-02 05:49:00,
2013-08-01 23:54:00,57.2,52.1,29.84,NW,325,0.0,1.0,83,0.00,,,0.01,Wunderground v.1.15,2013-08-02 05:54:00,
2013-08-01 23:59:00,57.3,52.2,29.83,NW,322,0.0,0.0,83,0.00,,,0.01,Wunderground v.1.15,2013-08-02 05:59:00,